createdAt,value
2019-04-07T00:01:51.462Z,34.78
2019-04-07T00:04:21.569Z,36.20
2019-04-07T00:06:51.383Z,38.95
2019-04-07T00:09:21.028Z,37.13
2019-04-07T00:11:50.793Z,41.58
2019-04-07T00:14:20.668Z,37.45
2019-04-07T00:16:50.527Z,39.23
2019-04-07T00:19:20.873Z,40.05
2019-04-07T00:21:50.512Z,41.58
2019-04-07T00:24:20.206Z,39.38
2019-04-07T00:26:49.726Z,43.38
2019-04-07T00:29:19.542Z,41.80
2019-04-07T00:31:50.017Z,43.40
2019-04-07T00:34:20.500Z,44.15
2019-04-07T00:36:50.598Z,40.20
2019-04-07T00:39:20.816Z,44.40
2019-04-07T00:41:50.733Z,40.08
2019-04-07T00:44:20.548Z,44.55
2019-04-07T00:46:50.954Z,40.85
2019-04-07T00:49:20.783Z,43.68
2019-04-07T00:51:52.095Z,48.00
2019-04-07T00:54:21.688Z,42.35
2019-04-07T00:56:51.291Z,43.33
2019-04-07T00:59:20.949Z,49.03
2019-04-07T01:01:51.425Z,47.08
2019-04-07T01:04:21.168Z,44.55
2019-04-07T01:06:50.669Z,46.05
2019-04-07T01:09:20.308Z,45.70
2019-04-07T01:11:49.819Z,42.43
2019-04-07T01:14:19.477Z,42.90
2019-04-07T01:16:49.132Z,44.70
2019-04-07T01:19:18.927Z,46.63
2019-04-07T01:21:48.772Z,50.10
2019-04-07T01:24:18.739Z,49.27
2019-04-07T01:26:49.294Z,49.42
2019-04-07T01:29:19.003Z,53.92
2019-04-07T01:31:48.678Z,53.80
2019-04-07T01:34:18.476Z,52.60
2019-04-07T01:36:49.129Z,53.17
2019-04-07T01:39:19.401Z,49.42
2019-04-07T01:41:51.090Z,50.40
2019-04-07T01:44:31.327Z,51.73
2019-04-07T01:47:14.207Z,52.40
2019-04-07T01:50:01.176Z,51.73
2019-04-07T01:52:38.170Z,49.08
2019-04-07T01:55:12.935Z,44.60
2019-04-07T01:57:59.723Z,44.33
2019-04-07T02:00:31.626Z,48.75
2019-04-07T02:03:16.403Z,47.58
2019-04-07T02:05:57.142Z,43.30
2019-04-07T02:08:18.809Z,49.30
2019-04-07T02:11:06.097Z,48.25
2019-04-07T02:13:37.822Z,44.40
2019-04-07T02:16:15.622Z,50.78
2019-04-07T02:19:02.854Z,52.43
2019-04-07T02:21:40.737Z,44.70
2019-04-07T02:24:12.857Z,51.33
2019-04-07T02:26:53.164Z,56.53
2019-04-07T02:29:24.649Z,50.25
2019-04-07T02:32:14.094Z,45.55
2019-04-07T02:34:45.510Z,54.23
2019-04-07T02:37:33.366Z,53.73
2019-04-07T02:40:04.591Z,52.00
2019-04-07T02:42:37.146Z,51.70
2019-04-07T02:50:37.038Z,51.02
2019-04-07T02:53:24.581Z,52.00
2019-04-07T02:55:55.080Z,57.60
2019-04-07T02:58:27.161Z,53.48
2019-04-07T03:01:03.808Z,55.23
2019-04-07T03:03:39.528Z,57.95
2019-04-07T03:06:37.637Z,60.08
2019-04-07T03:09:02.286Z,53.50
2019-04-07T03:11:33.628Z,57.88
2019-04-07T03:14:05.679Z,54.58
2019-04-07T03:16:53.219Z,56.02
2019-04-07T03:19:25.349Z,55.67
2019-04-07T03:22:11.696Z,56.73
2019-04-07T03:24:44.523Z,56.63
2019-04-07T03:27:15.878Z,56.90
2019-04-07T03:30:06.032Z,53.70
2019-04-07T03:32:53.267Z,59.95
2019-04-07T03:35:42.333Z,60.58
2019-04-07T03:38:12.094Z,61.63
2019-04-07T03:40:52.896Z,54.45
2019-04-07T03:43:24.304Z,60.15
2019-04-07T03:46:06.030Z,58.42
2019-04-07T03:48:41.515Z,57.60
2019-04-07T03:51:30.011Z,57.83
2019-04-07T03:54:04.485Z,57.85
2019-04-07T03:56:53.669Z,63.68
2019-04-07T03:59:34.025Z,57.25
2019-04-07T04:02:08.108Z,58.95
2019-04-07T04:04:39.600Z,67.75
2019-04-07T04:07:25.526Z,58.33
2019-04-07T04:09:48.672Z,63.00
2019-04-07T04:12:21.299Z,64.97
2019-04-07T04:14:54.728Z,54.30
2019-04-07T04:17:25.100Z,56.90
2019-04-07T04:19:55.200Z,66.42
2019-04-07T04:22:24.887Z,58.70
2019-04-07T04:24:55.455Z,63.35
2019-04-07T04:27:25.210Z,67.55
2019-04-07T04:29:55.315Z,71.10
2019-04-07T04:32:25.529Z,65.80
2019-04-07T04:34:55.214Z,66.40
2019-04-07T04:37:37.754Z,67.30
2019-04-07T04:39:56.142Z,64.55
2019-04-07T04:42:25.714Z,61.10
2019-04-07T04:44:55.261Z,69.27
2019-04-07T04:47:25.200Z,64.50
2019-04-07T04:49:54.812Z,63.65
2019-04-07T04:52:24.342Z,66.77
2019-04-07T04:54:54.897Z,61.30
2019-04-07T04:57:25.209Z,65.03
2019-04-07T04:59:54.797Z,73.65
2019-04-07T05:02:24.501Z,70.80
2019-04-07T05:04:54.265Z,65.12
2019-04-07T05:07:24.520Z,68.35
2019-04-07T05:09:55.731Z,78.75
2019-04-07T05:12:25.924Z,61.83
2019-04-07T05:14:55.959Z,66.05
2019-04-07T05:17:26.052Z,67.42
2019-04-07T05:19:56.509Z,67.25
2019-04-07T05:22:26.746Z,78.83
2019-04-07T05:24:56.654Z,77.82
2019-04-07T05:27:27.561Z,92.60
2019-04-07T05:29:57.467Z,81.60
2019-04-07T05:32:27.040Z,62.13
2019-04-07T05:34:56.736Z,80.05
2019-04-07T05:37:26.835Z,90.92
2019-04-07T05:39:56.560Z,61.35
2019-04-07T05:42:26.229Z,63.00
2019-04-07T05:44:56.043Z,50.03
2019-04-07T05:47:25.770Z,52.27
2019-04-07T05:49:58.454Z,61.10
2019-04-07T05:52:27.215Z,65.77
2019-04-07T05:54:56.815Z,55.40
2019-04-07T05:57:26.417Z,52.80
2019-04-07T05:59:58.020Z,61.80
2019-04-07T06:02:31.386Z,53.00
2019-04-07T06:05:00.284Z,55.25
2019-04-07T06:07:31.546Z,47.70
2019-04-07T06:10:02.370Z,41.33
2019-04-07T06:12:32.808Z,37.35
2019-04-07T06:15:02.644Z,41.05
2019-04-07T06:17:32.238Z,40.12
2019-04-07T06:20:02.631Z,42.58
2019-04-07T06:22:32.191Z,48.10
2019-04-07T06:25:03.099Z,41.75
2019-04-07T06:27:33.631Z,39.90
2019-04-07T06:30:06.082Z,34.95
2019-04-07T06:32:37.587Z,36.88
2019-04-07T06:35:08.568Z,38.57
2019-04-07T06:37:38.654Z,39.03
2019-04-07T06:40:09.043Z,39.18
2019-04-07T06:42:38.873Z,36.65
2019-04-07T06:45:10.973Z,29.20
2019-04-07T06:50:25.798Z,39.30
2019-04-07T06:53:10.685Z,34.35
2019-04-07T06:55:50.914Z,34.88
2019-04-07T06:58:41.366Z,37.45
2019-04-07T07:01:07.747Z,40.98
2019-04-07T07:03:46.384Z,45.05
2019-04-07T07:06:28.466Z,36.17
2019-04-07T07:08:58.394Z,43.38
2019-04-07T07:11:46.134Z,44.25
2019-04-07T07:14:32.906Z,40.12
2019-04-07T07:16:53.076Z,40.80
2019-04-07T07:19:39.959Z,39.77
2019-04-07T07:22:14.741Z,38.10
2019-04-07T07:24:46.771Z,37.73
2019-04-07T07:27:15.428Z,41.88
2019-04-07T07:29:45.962Z,38.60
2019-04-07T07:32:16.970Z,40.88
2019-04-07T07:34:46.729Z,39.70
2019-04-07T07:37:16.357Z,43.33
2019-04-07T07:39:46.792Z,42.38
2019-04-07T07:42:19.069Z,40.88
2019-04-07T07:44:48.382Z,41.85
2019-04-07T07:47:20.734Z,36.68
2019-04-07T07:49:49.771Z,39.70
2019-04-07T07:52:21.577Z,44.53
2019-04-07T07:54:50.831Z,40.63
2019-04-07T07:57:23.509Z,45.30
2019-04-07T07:59:52.037Z,42.93
2019-04-07T08:02:22.038Z,54.50
2019-04-07T08:04:52.754Z,46.18
2019-04-07T08:07:23.611Z,49.42
2019-04-07T08:09:54.355Z,44.60
2019-04-07T08:12:25.434Z,49.30
2019-04-07T08:14:57.487Z,42.67
2019-04-07T08:17:27.580Z,43.00
2019-04-07T08:19:57.786Z,47.10
2019-04-07T08:22:33.755Z,41.08
2019-04-07T08:24:58.851Z,44.50
2019-04-07T08:27:31.020Z,41.30
2019-04-07T08:29:59.671Z,37.80
2019-04-07T08:32:31.937Z,37.28
2019-04-07T08:35:03.789Z,36.23
2019-04-07T08:37:31.901Z,45.83
2019-04-07T08:40:04.307Z,36.80
2019-04-07T08:42:32.889Z,38.85
2019-04-07T08:45:03.308Z,36.73
2019-04-07T08:47:33.454Z,42.27
2019-04-07T08:50:03.268Z,38.98
2019-04-07T08:52:33.206Z,39.98
2019-04-07T08:55:03.059Z,37.75
2019-04-07T08:57:32.641Z,35.48
2019-04-07T09:00:02.336Z,39.83
2019-04-07T09:02:32.217Z,40.10
2019-04-07T09:05:02.627Z,43.25
2019-04-07T09:07:33.514Z,36.63
2019-04-07T09:10:04.622Z,40.90
2019-04-07T09:12:34.952Z,35.83
2019-04-07T09:15:09.466Z,38.58
2019-04-07T09:17:47.136Z,37.63
2019-04-07T09:20:26.797Z,34.08
2019-04-07T09:22:58.292Z,36.75
2019-04-07T09:25:45.346Z,39.33
2019-04-07T09:28:14.733Z,35.83
2019-04-07T09:30:46.031Z,39.88
2019-04-07T09:33:21.576Z,43.00
2019-04-07T09:35:56.666Z,38.20
2019-04-07T09:38:42.115Z,36.83
2019-04-07T09:41:14.360Z,35.43
2019-04-07T09:44:03.206Z,37.38
2019-04-07T09:46:51.341Z,38.15
2019-04-07T09:49:34.336Z,40.10
2019-04-07T09:52:22.119Z,34.65
2019-04-07T09:54:55.490Z,34.65
2019-04-07T09:57:36.070Z,36.93
2019-04-07T10:00:08.519Z,39.03
2019-04-07T10:02:55.829Z,38.67
2019-04-07T10:05:35.933Z,40.48
2019-04-07T10:08:07.377Z,39.10
2019-04-07T10:10:55.916Z,38.35
2019-04-07T10:13:28.546Z,38.98
2019-04-07T10:16:02.847Z,39.85
2019-04-07T10:18:50.899Z,36.38
2019-04-07T10:21:20.663Z,39.83
2019-04-07T10:23:50.889Z,43.25
2019-04-07T10:26:43.005Z,35.13
2019-04-07T10:29:14.253Z,36.98
2019-04-07T10:31:47.864Z,35.63
2019-04-07T10:34:32.008Z,34.83
2019-04-07T10:37:18.927Z,34.48
2019-04-07T10:39:52.736Z,37.20
2019-04-07T10:42:30.265Z,34.38
2019-04-07T10:45:04.803Z,33.83
2019-04-07T10:47:47.528Z,32.33
2019-04-07T10:50:35.411Z,36.63
2019-04-07T10:53:17.082Z,38.55
2019-04-07T10:56:04.081Z,36.63
2019-04-07T10:58:42.491Z,34.23
2019-04-07T11:01:19.658Z,36.20
2019-04-07T11:03:53.741Z,35.95
2019-04-07T11:06:40.611Z,35.65
2019-04-07T11:09:14.399Z,35.17
2019-04-07T11:11:57.540Z,35.75
2019-04-07T11:14:37.454Z,37.15
2019-04-07T11:17:17.256Z,37.23
2019-04-07T11:19:53.124Z,35.00
2019-04-07T11:22:40.276Z,32.58
2019-04-07T11:25:18.246Z,34.53
2019-04-07T11:28:05.960Z,36.20
2019-04-07T11:30:54.134Z,36.05
2019-04-07T11:33:39.357Z,32.35
2019-04-07T11:36:11.370Z,32.70
2019-04-07T11:38:43.015Z,33.02
2019-04-07T11:41:14.396Z,34.33
2019-04-07T11:43:45.691Z,35.45
2019-04-07T11:46:14.990Z,34.03
2019-04-07T11:48:46.835Z,30.95
2019-04-07T11:51:19.516Z,32.65
2019-04-07T11:53:51.263Z,32.95
2019-04-07T11:56:26.461Z,30.45
2019-04-07T11:59:03.404Z,35.08
2019-04-07T12:01:49.790Z,34.08
2019-04-07T12:04:26.746Z,32.98
2019-04-07T12:07:14.514Z,33.18
2019-04-07T12:10:00.597Z,32.73
2019-04-07T12:12:37.481Z,30.90
2019-04-07T12:15:08.501Z,26.95
2019-04-07T12:17:49.194Z,30.93
2019-04-07T12:20:37.550Z,31.85
2019-04-07T12:23:23.398Z,29.77
2019-04-07T12:26:10.095Z,31.25
2019-04-07T12:28:59.399Z,32.48
2019-04-07T12:31:42.390Z,30.50
2019-04-07T12:34:16.755Z,28.75
2019-04-07T12:37:07.593Z,31.20
2019-04-07T12:39:36.058Z,34.00
2019-04-07T12:42:11.340Z,36.70
2019-04-07T12:44:44.104Z,32.42
2019-04-07T12:47:32.050Z,30.52
2019-04-07T12:50:05.841Z,30.30
2019-04-07T12:52:48.895Z,32.73
2019-04-07T12:55:20.812Z,25.12
2019-04-07T12:58:04.906Z,28.20
2019-04-07T13:00:52.991Z,28.87
2019-04-07T13:03:14.305Z,26.95
2019-04-07T13:05:59.105Z,30.23
2019-04-07T13:08:30.614Z,28.62
2019-04-07T13:11:09.687Z,24.85
2019-04-07T13:13:38.844Z,23.57
2019-04-07T13:16:20.320Z,24.73
2019-04-07T13:18:54.300Z,29.70
2019-04-07T13:21:38.150Z,27.32
2019-04-07T13:24:30.219Z,25.75
2019-04-07T13:26:57.284Z,27.05
2019-04-07T13:29:40.101Z,27.87
2019-04-07T13:32:14.198Z,25.72
2019-04-07T13:34:54.436Z,28.27
2019-04-07T13:37:43.790Z,25.95
2019-04-07T13:40:28.407Z,25.88
2019-04-07T13:43:01.898Z,25.12
2019-04-07T13:45:33.013Z,24.80
2019-04-07T13:48:05.912Z,25.05
2019-04-07T13:50:38.308Z,25.68
2019-04-07T13:53:13.340Z,25.90
2019-04-07T13:55:50.900Z,24.92
2019-04-07T13:58:26.197Z,24.12
2019-04-07T14:01:13.787Z,24.77
2019-04-07T14:03:45.262Z,25.02
2019-04-07T14:06:25.652Z,25.08
2019-04-07T14:09:01.383Z,25.60
2019-04-07T14:11:53.438Z,25.40
2019-04-07T14:14:30.370Z,26.52
2019-04-07T14:17:01.572Z,24.65
2019-04-07T14:19:50.972Z,26.23
2019-04-07T14:22:38.390Z,25.90
2019-04-07T14:25:18.045Z,27.13
2019-04-07T14:27:53.717Z,25.85
2019-04-07T14:30:23.397Z,27.25
2019-04-07T14:32:52.913Z,25.88
2019-04-07T14:35:30.482Z,28.05
2019-04-07T14:38:02.570Z,24.50
2019-04-07T14:40:34.643Z,27.73
2019-04-07T14:45:49.043Z,27.70
2019-04-07T14:48:20.472Z,28.87
2019-04-07T14:51:01.230Z,25.65
2019-04-07T14:53:42.097Z,27.37
2019-04-07T14:56:17.545Z,29.27
2019-04-07T14:58:53.386Z,29.10
2019-04-07T15:01:23.658Z,29.00
2019-04-07T15:03:53.433Z,28.60
2019-04-07T15:06:23.884Z,28.85
2019-04-07T15:09:04.749Z,25.20
2019-04-07T15:11:41.209Z,28.25
2019-04-07T15:14:11.655Z,27.15
2019-04-07T15:16:42.827Z,28.57
2019-04-07T15:19:12.369Z,31.85
2019-04-07T15:21:41.975Z,33.02
2019-04-07T15:24:11.563Z,35.33
2019-04-07T15:26:41.143Z,47.75
2019-04-07T15:29:10.987Z,57.20
2019-04-07T15:31:41.838Z,54.80
2019-04-07T15:34:13.983Z,39.92
2019-04-07T15:36:43.960Z,39.60
2019-04-07T15:39:13.727Z,39.10
2019-04-07T15:41:44.485Z,38.38
2019-04-07T15:44:15.710Z,36.83
2019-04-07T15:46:50.324Z,42.37
2019-04-07T15:49:17.231Z,37.98
2019-04-07T15:51:47.604Z,36.63
2019-04-07T15:54:20.234Z,34.45
2019-04-07T15:56:50.252Z,32.53
2019-04-07T15:59:20.618Z,31.15
2019-04-07T16:01:50.372Z,34.10
2019-04-07T16:04:25.831Z,33.30
2019-04-07T16:06:52.935Z,32.17
2019-04-07T16:09:35.918Z,32.67
2019-04-07T16:11:57.451Z,32.73
2019-04-07T16:14:26.334Z,31.37
2019-04-07T16:17:00.305Z,31.97
2019-04-07T16:19:37.342Z,33.00
2019-04-07T16:21:58.944Z,31.52
2019-04-07T16:24:29.253Z,32.38
2019-04-07T16:27:02.377Z,33.67
2019-04-07T16:29:30.368Z,31.12
2019-04-07T16:32:00.062Z,32.23
2019-04-07T16:34:30.453Z,34.33
2019-04-07T16:37:00.445Z,29.48
2019-04-07T16:39:33.525Z,31.27
2019-04-07T16:42:03.134Z,33.98
2019-04-07T16:44:36.253Z,30.62
2019-04-07T16:47:04.268Z,35.40
2019-04-07T16:49:34.039Z,34.20
2019-04-07T16:52:05.536Z,38.25
2019-04-07T16:54:35.164Z,52.83
2019-04-07T16:57:05.195Z,42.88
2019-04-07T16:59:34.945Z,38.90
2019-04-07T17:02:05.466Z,43.05
2019-04-07T17:04:35.060Z,47.30
2019-04-07T17:07:11.397Z,44.60
2019-04-07T17:12:09.492Z,40.33
2019-04-07T17:14:37.943Z,45.78
2019-04-07T17:17:07.458Z,46.15
2019-04-07T17:19:38.363Z,41.63
2019-04-07T17:22:11.940Z,38.25
2019-04-07T17:24:39.935Z,47.50
2019-04-07T17:27:11.463Z,40.75
2019-04-07T17:29:41.621Z,41.00
2019-04-07T17:32:12.179Z,40.78
2019-04-07T17:34:43.454Z,42.27
2019-04-07T17:37:13.165Z,42.07
2019-04-07T17:39:53.376Z,41.58
2019-04-07T17:42:26.149Z,45.63
2019-04-07T17:45:09.686Z,43.70
2019-04-07T17:47:41.785Z,39.75
2019-04-07T17:50:16.837Z,39.98
2019-04-07T17:52:57.993Z,38.63
2019-04-07T17:55:29.931Z,39.15
2019-04-07T17:58:08.888Z,41.20
2019-04-07T18:00:56.505Z,41.75
2019-04-07T18:03:39.093Z,40.08
2019-04-07T18:06:08.670Z,43.58
2019-04-07T18:09:05.350Z,49.45
2019-04-07T18:11:29.309Z,54.00
2019-04-07T18:14:19.140Z,46.53
2019-04-07T18:16:50.408Z,41.30
2019-04-07T18:19:28.761Z,52.03
2019-04-07T18:22:12.479Z,52.98
2019-04-07T18:24:47.688Z,57.10
2019-04-07T18:27:21.893Z,51.23
2019-04-07T18:30:09.796Z,81.37
2019-04-07T18:32:41.781Z,75.12
2019-04-07T18:35:32.919Z,76.45
2019-04-07T18:38:01.048Z,64.80
2019-04-07T18:40:48.358Z,49.53
2019-04-07T18:43:36.855Z,49.88
2019-04-07T18:46:08.460Z,39.78
2019-04-07T18:48:59.138Z,39.55
2019-04-07T18:51:47.183Z,44.90
2019-04-07T18:54:32.443Z,55.88
2019-04-07T18:57:05.498Z,54.60
2019-04-07T18:59:59.394Z,60.50
2019-04-07T19:02:28.887Z,73.67
2019-04-07T19:05:14.019Z,73.17
2019-04-07T19:07:47.211Z,62.15
2019-04-07T19:10:23.780Z,60.48
2019-04-07T19:13:15.597Z,68.17
2019-04-07T19:15:49.995Z,63.75
2019-04-07T19:18:22.647Z,72.15
2019-04-07T19:20:57.828Z,79.55
2019-04-07T19:23:29.153Z,74.55
2019-04-07T19:26:10.575Z,73.83
2019-04-07T19:28:47.782Z,80.37
2019-04-07T19:31:19.467Z,65.85
2019-04-07T19:33:49.418Z,55.70
2019-04-07T19:36:27.457Z,62.50
2019-04-07T19:39:00.598Z,63.65
2019-04-07T19:41:32.863Z,55.28
2019-04-07T19:44:07.500Z,50.73
2019-04-07T19:46:44.831Z,54.95
2019-04-07T19:49:22.565Z,52.88
2019-04-07T19:52:10.641Z,53.70
2019-04-07T19:54:58.143Z,52.67
2019-04-07T19:57:45.352Z,56.15
2019-04-07T20:00:21.928Z,53.73
2019-04-07T20:02:53.195Z,60.08
2019-04-07T20:05:25.374Z,55.25
2019-04-07T20:08:14.157Z,55.92
2019-04-07T20:10:51.797Z,63.13
2019-04-07T20:13:26.275Z,54.20
2019-04-07T20:15:58.840Z,56.13
2019-04-07T20:18:30.534Z,60.35
2019-04-07T20:21:08.495Z,62.88
2019-04-07T20:23:43.857Z,72.08
2019-04-07T20:26:31.189Z,61.77
2019-04-07T20:29:09.781Z,59.10
2019-04-07T20:31:41.418Z,66.65
2019-04-07T20:34:12.579Z,62.20
2019-04-07T20:36:42.527Z,62.13
2019-04-07T20:39:13.870Z,63.05
2019-04-07T20:41:43.713Z,63.00
2019-04-07T20:44:33.878Z,63.70
2019-04-07T20:47:08.500Z,60.12
2019-04-07T20:49:40.315Z,64.35
2019-04-07T20:52:22.259Z,59.53
2019-04-07T20:54:50.944Z,59.27
2019-04-07T20:57:23.824Z,67.93
2019-04-07T21:00:06.855Z,65.10
2019-04-07T21:02:39.255Z,71.07
2019-04-07T21:05:12.342Z,64.50
2019-04-07T21:07:51.235Z,64.03
2019-04-07T21:10:27.514Z,70.08
2019-04-07T21:13:16.775Z,74.12
2019-04-07T21:15:55.333Z,65.78
2019-04-07T21:18:32.376Z,68.45
2019-04-07T21:21:22.009Z,68.17
2019-04-07T21:24:05.819Z,65.85
2019-04-07T21:26:37.198Z,70.35
2019-04-07T21:29:10.850Z,71.80
2019-04-07T21:31:46.677Z,77.10
2019-04-07T21:34:33.375Z,76.15
2019-04-07T21:37:10.677Z,74.75
2019-04-07T21:39:41.837Z,74.62
2019-04-07T21:42:29.406Z,83.67
2019-04-07T21:45:04.010Z,90.75
2019-04-07T21:47:42.218Z,89.62
2019-04-07T21:50:30.269Z,88.92
2019-04-07T21:53:08.721Z,101.62
2019-04-07T21:55:46.517Z,102.20
2019-04-07T21:58:22.350Z,95.90
2019-04-07T22:01:02.911Z,97.02
2019-04-07T22:03:52.503Z,99.77
2019-04-07T22:06:26.540Z,103.67
2019-04-07T22:09:02.600Z,99.45
2019-04-07T22:11:32.607Z,101.67
2019-04-07T22:14:04.045Z,99.25
2019-04-07T22:16:34.256Z,100.67
2019-04-07T22:19:04.242Z,90.72
2019-04-07T22:21:34.216Z,86.75
2019-04-07T22:24:04.818Z,85.35
2019-04-07T22:26:34.982Z,77.42
2019-04-07T22:29:05.567Z,74.62
2019-04-07T22:31:36.855Z,71.90
2019-04-07T22:34:06.893Z,74.80
2019-04-07T22:36:36.711Z,71.00
2019-04-07T22:39:07.829Z,64.67
2019-04-07T22:41:41.219Z,62.88
2019-04-07T22:44:09.224Z,65.70
2019-04-07T22:46:39.583Z,71.20
2019-04-07T22:49:09.379Z,65.80
2019-04-07T22:51:43.014Z,65.25
2019-04-07T22:54:10.274Z,65.85
2019-04-07T22:56:40.804Z,64.25
2019-04-07T22:59:11.894Z,63.90
2019-04-07T23:01:43.051Z,61.02
2019-04-07T23:04:12.674Z,59.10
2019-04-07T23:06:42.575Z,65.87
2019-04-07T23:09:13.387Z,56.48
2019-04-07T23:11:44.015Z,58.33
2019-04-07T23:14:13.812Z,55.55
2019-04-07T23:16:44.970Z,58.33
2019-04-07T23:19:14.518Z,49.18
2019-04-07T23:21:44.094Z,52.67
2019-04-07T23:24:13.703Z,47.73
2019-04-07T23:26:43.292Z,43.15
2019-04-07T23:29:12.893Z,39.48
2019-04-07T23:31:42.505Z,44.10
2019-04-07T23:34:12.184Z,44.00
2019-04-07T23:36:42.470Z,43.52
2019-04-07T23:39:13.069Z,42.48
2019-04-07T23:41:43.538Z,43.23
2019-04-07T23:44:13.281Z,38.00
2019-04-07T23:46:43.525Z,35.63
2019-04-07T23:49:13.234Z,35.78
2019-04-07T23:51:43.470Z,37.58
2019-04-07T23:54:14.418Z,35.40
2019-04-07T23:56:45.318Z,37.50
2019-04-07T23:59:15.092Z,36.33
